sensor_id;sensor_type;location;lat;lon;timestamp;P1;durP1;ratioP1;P2;durP2;ratioP2
8435;SDS011;4255;48.730;9.156;2023-05-21T00:01:34;20.20;;;18.00;;
8435;SDS011;4255;48.730;9.156;2023-05-21T00:04:28;23.73;;;17.80;;
8435;SDS011;4255;48.730;9.156;2023-05-21T00:06:57;23.67;;;17.97;;
8435;SDS011;4255;48.730;9.156;2023-05-21T00:09:26;27.40;;;20.00;;
8435;SDS011;4255;48.730;9.156;2023-05-21T00:11:56;24.53;;;18.93;;
8435;SDS011;4255;48.730;9.156;2023-05-21T00:14:24;23.23;;;18.57;;
8435;SDS011;4255;48.730;9.156;2023-05-21T00:17:02;28.73;;;20.13;;
8435;SDS011;4255;48.730;9.156;2023-05-21T00:19:33;22.07;;;18.00;;
8435;SDS011;4255;48.730;9.156;2023-05-21T00:22:20;23.77;;;18.87;;
8435;SDS011;4255;48.730;9.156;2023-05-21T00:24:48;25.40;;;18.63;;
8435;SDS011;4255;48.730;9.156;2023-05-21T00:27:21;21.57;;;18.20;;
8435;SDS011;4255;48.730;9.156;2023-05-21T00:29:49;23.30;;;18.60;;
8435;SDS011;4255;48.730;9.156;2023-05-21T00:32:32;22.90;;;19.57;;
8435;SDS011;4255;48.730;9.156;2023-05-21T00:35:00;22.57;;;17.97;;
8435;SDS011;4255;48.730;9.156;2023-05-21T00:37:28;27.87;;;19.50;;
8435;SDS011;4255;48.730;9.156;2023-05-21T00:40:07;22.47;;;18.20;;
8435;SDS011;4255;48.730;9.156;2023-05-21T00:42:33;30.30;;;20.10;;
8435;SDS011;4255;48.730;9.156;2023-05-21T00:45:04;27.60;;;19.30;;
8435;SDS011;4255;48.730;9.156;2023-05-21T00:47:31;22.97;;;18.53;;
8435;SDS011;4255;48.730;9.156;2023-05-21T00:49:57;27.60;;;20.57;;
8435;SDS011;4255;48.730;9.156;2023-05-21T00:52:23;24.57;;;19.60;;
8435;SDS011;4255;48.730;9.156;2023-05-21T00:54:51;24.67;;;18.93;;
8435;SDS011;4255;48.730;9.156;2023-05-21T00:57:17;27.90;;;19.30;;
8435;SDS011;4255;48.730;9.156;2023-05-21T00:59:45;25.87;;;18.90;;
8435;SDS011;4255;48.730;9.156;2023-05-21T01:02:12;26.63;;;20.30;;
8435;SDS011;4255;48.730;9.156;2023-05-21T01:04:38;22.90;;;19.73;;
8435;SDS011;4255;48.730;9.156;2023-05-21T01:07:04;27.03;;;19.77;;
8435;SDS011;4255;48.730;9.156;2023-05-21T01:09:30;25.73;;;19.90;;
8435;SDS011;4255;48.730;9.156;2023-05-21T01:11:56;27.00;;;20.23;;
8435;SDS011;4255;48.730;9.156;2023-05-21T01:14:24;30.40;;;20.43;;
8435;SDS011;4255;48.730;9.156;2023-05-21T01:16:50;27.17;;;20.80;;
8435;SDS011;4255;48.730;9.156;2023-05-21T01:19:18;25.67;;;20.07;;
8435;SDS011;4255;48.730;9.156;2023-05-21T01:21:48;24.50;;;18.30;;
8435;SDS011;4255;48.730;9.156;2023-05-21T01:24:17;24.40;;;19.77;;
8435;SDS011;4255;48.730;9.156;2023-05-21T01:26:43;26.73;;;20.10;;
8435;SDS011;4255;48.730;9.156;2023-05-21T01:29:10;28.93;;;22.87;;
8435;SDS011;4255;48.730;9.156;2023-05-21T01:31:44;27.60;;;20.37;;
8435;SDS011;4255;48.730;9.156;2023-05-21T01:34:25;22.37;;;19.23;;
8435;SDS011;4255;48.730;9.156;2023-05-21T01:37:00;27.10;;;20.60;;
8435;SDS011;4255;48.730;9.156;2023-05-21T01:39:50;29.90;;;20.47;;
8435;SDS011;4255;48.730;9.156;2023-05-21T01:42:19;24.80;;;20.90;;
8435;SDS011;4255;48.730;9.156;2023-05-21T01:44:49;25.93;;;20.33;;
8435;SDS011;4255;48.730;9.156;2023-05-21T01:47:19;32.17;;;22.60;;
8435;SDS011;4255;48.730;9.156;2023-05-21T01:49:51;29.10;;;20.47;;
8435;SDS011;4255;48.730;9.156;2023-05-21T01:52:17;27.63;;;21.60;;
8435;SDS011;4255;48.730;9.156;2023-05-21T01:54:43;26.70;;;20.37;;
8435;SDS011;4255;48.730;9.156;2023-05-21T01:57:08;30.97;;;22.67;;
8435;SDS011;4255;48.730;9.156;2023-05-21T01:59:34;28.33;;;21.90;;
8435;SDS011;4255;48.730;9.156;2023-05-21T02:02:00;30.27;;;22.27;;
8435;SDS011;4255;48.730;9.156;2023-05-21T02:04:26;31.53;;;22.20;;
8435;SDS011;4255;48.730;9.156;2023-05-21T02:06:51;30.97;;;21.10;;
8435;SDS011;4255;48.730;9.156;2023-05-21T02:09:18;28.93;;;22.77;;
8435;SDS011;4255;48.730;9.156;2023-05-21T02:11:44;32.73;;;24.07;;
8435;SDS011;4255;48.730;9.156;2023-05-21T02:14:10;36.37;;;23.50;;
8435;SDS011;4255;48.730;9.156;2023-05-21T02:16:37;32.70;;;23.27;;
8435;SDS011;4255;48.730;9.156;2023-05-21T02:19:03;29.47;;;21.73;;
8435;SDS011;4255;48.730;9.156;2023-05-21T02:21:30;28.10;;;21.20;;
8435;SDS011;4255;48.730;9.156;2023-05-21T02:23:56;31.03;;;22.80;;
8435;SDS011;4255;48.730;9.156;2023-05-21T02:26:21;33.10;;;23.67;;
8435;SDS011;4255;48.730;9.156;2023-05-21T02:28:47;35.87;;;23.60;;
8435;SDS011;4255;48.730;9.156;2023-05-21T02:31:12;30.37;;;22.90;;
8435;SDS011;4255;48.730;9.156;2023-05-21T02:33:38;30.00;;;22.50;;
8435;SDS011;4255;48.730;9.156;2023-05-21T02:36:05;30.83;;;23.07;;
8435;SDS011;4255;48.730;9.156;2023-05-21T02:38:37;35.47;;;25.30;;
8435;SDS011;4255;48.730;9.156;2023-05-21T02:41:05;30.43;;;23.10;;
8435;SDS011;4255;48.730;9.156;2023-05-21T02:43:30;37.37;;;23.37;;
8435;SDS011;4255;48.730;9.156;2023-05-21T02:45:56;30.43;;;22.20;;
8435;SDS011;4255;48.730;9.156;2023-05-21T02:48:21;35.03;;;24.07;;
8435;SDS011;4255;48.730;9.156;2023-05-21T02:50:47;32.47;;;22.87;;
8435;SDS011;4255;48.730;9.156;2023-05-21T02:53:13;34.90;;;23.57;;
8435;SDS011;4255;48.730;9.156;2023-05-21T02:55:38;33.17;;;24.90;;
8435;SDS011;4255;48.730;9.156;2023-05-21T02:58:04;30.50;;;23.40;;
8435;SDS011;4255;48.730;9.156;2023-05-21T03:00:30;33.90;;;24.17;;
8435;SDS011;4255;48.730;9.156;2023-05-21T03:02:55;39.93;;;24.53;;
8435;SDS011;4255;48.730;9.156;2023-05-21T03:05:21;31.40;;;22.60;;
8435;SDS011;4255;48.730;9.156;2023-05-21T03:07:47;32.97;;;23.60;;
8435;SDS011;4255;48.730;9.156;2023-05-21T03:10:12;31.73;;;23.47;;
8435;SDS011;4255;48.730;9.156;2023-05-21T03:12:38;38.60;;;23.97;;
8435;SDS011;4255;48.730;9.156;2023-05-21T03:15:03;33.73;;;23.70;;
8435;SDS011;4255;48.730;9.156;2023-05-21T03:17:29;33.63;;;25.43;;
8435;SDS011;4255;48.730;9.156;2023-05-21T03:19:56;34.50;;;25.13;;
8435;SDS011;4255;48.730;9.156;2023-05-21T03:22:21;35.60;;;23.97;;
8435;SDS011;4255;48.730;9.156;2023-05-21T03:24:47;32.63;;;24.40;;
8435;SDS011;4255;48.730;9.156;2023-05-21T03:27:13;32.17;;;23.83;;
8435;SDS011;4255;48.730;9.156;2023-05-21T03:29:38;37.70;;;25.97;;
8435;SDS011;4255;48.730;9.156;2023-05-21T03:32:04;38.17;;;25.17;;
8435;SDS011;4255;48.730;9.156;2023-05-21T03:34:30;36.03;;;24.57;;
8435;SDS011;4255;48.730;9.156;2023-05-21T03:36:58;35.03;;;23.93;;
8435;SDS011;4255;48.730;9.156;2023-05-21T03:39:24;34.03;;;24.90;;
8435;SDS011;4255;48.730;9.156;2023-05-21T03:41:49;32.27;;;23.97;;
8435;SDS011;4255;48.730;9.156;2023-05-21T03:44:15;35.47;;;25.37;;
8435;SDS011;4255;48.730;9.156;2023-05-21T03:46:41;32.53;;;24.20;;
8435;SDS011;4255;48.730;9.156;2023-05-21T03:49:06;33.43;;;23.97;;
8435;SDS011;4255;48.730;9.156;2023-05-21T03:51:32;34.57;;;24.33;;
8435;SDS011;4255;48.730;9.156;2023-05-21T03:53:58;37.27;;;25.10;;
8435;SDS011;4255;48.730;9.156;2023-05-21T03:56:23;33.37;;;25.10;;
8435;SDS011;4255;48.730;9.156;2023-05-21T03:58:50;39.10;;;26.50;;
8435;SDS011;4255;48.730;9.156;2023-05-21T04:01:16;37.13;;;25.33;;
8435;SDS011;4255;48.730;9.156;2023-05-21T04:03:43;32.40;;;23.23;;
8435;SDS011;4255;48.730;9.156;2023-05-21T04:06:09;39.33;;;26.60;;
8435;SDS011;4255;48.730;9.156;2023-05-21T04:08:35;39.33;;;23.93;;
8435;SDS011;4255;48.730;9.156;2023-05-21T04:11:01;32.47;;;25.00;;
8435;SDS011;4255;48.730;9.156;2023-05-21T04:13:27;37.93;;;26.27;;
8435;SDS011;4255;48.730;9.156;2023-05-21T04:15:53;35.23;;;24.90;;
8435;SDS011;4255;48.730;9.156;2023-05-21T04:18:19;35.73;;;25.10;;
8435;SDS011;4255;48.730;9.156;2023-05-21T04:20:46;34.60;;;25.13;;
8435;SDS011;4255;48.730;9.156;2023-05-21T04:23:13;34.70;;;24.57;;
8435;SDS011;4255;48.730;9.156;2023-05-21T04:25:39;35.43;;;25.60;;
8435;SDS011;4255;48.730;9.156;2023-05-21T04:28:05;34.93;;;24.73;;
8435;SDS011;4255;48.730;9.156;2023-05-21T04:30:31;33.17;;;24.83;;
8435;SDS011;4255;48.730;9.156;2023-05-21T04:32:59;32.83;;;24.07;;
8435;SDS011;4255;48.730;9.156;2023-05-21T04:35:25;37.20;;;25.90;;
8435;SDS011;4255;48.730;9.156;2023-05-21T04:37:51;39.10;;;27.10;;
8435;SDS011;4255;48.730;9.156;2023-05-21T04:40:18;31.27;;;23.90;;
8435;SDS011;4255;48.730;9.156;2023-05-21T04:42:48;34.70;;;24.40;;
8435;SDS011;4255;48.730;9.156;2023-05-21T04:45:15;31.00;;;24.63;;
8435;SDS011;4255;48.730;9.156;2023-05-21T04:47:41;35.60;;;25.27;;
8435;SDS011;4255;48.730;9.156;2023-05-21T04:50:07;34.53;;;25.20;;
8435;SDS011;4255;48.730;9.156;2023-05-21T04:52:34;31.90;;;23.77;;
8435;SDS011;4255;48.730;9.156;2023-05-21T04:55:00;35.47;;;24.70;;
8435;SDS011;4255;48.730;9.156;2023-05-21T04:57:27;31.00;;;23.57;;
8435;SDS011;4255;48.730;9.156;2023-05-21T04:59:53;34.00;;;24.47;;
8435;SDS011;4255;48.730;9.156;2023-05-21T05:02:19;35.53;;;26.73;;
8435;SDS011;4255;48.730;9.156;2023-05-21T05:04:44;29.10;;;22.60;;
8435;SDS011;4255;48.730;9.156;2023-05-21T05:07:10;32.20;;;23.57;;
8435;SDS011;4255;48.730;9.156;2023-05-21T05:09:36;33.40;;;24.63;;
8435;SDS011;4255;48.730;9.156;2023-05-21T05:12:02;34.53;;;25.00;;
8435;SDS011;4255;48.730;9.156;2023-05-21T05:14:27;34.10;;;24.63;;
8435;SDS011;4255;48.730;9.156;2023-05-21T05:16:53;35.50;;;25.00;;
8435;SDS011;4255;48.730;9.156;2023-05-21T05:19:23;34.77;;;25.00;;
8435;SDS011;4255;48.730;9.156;2023-05-21T05:21:49;32.50;;;23.47;;
8435;SDS011;4255;48.730;9.156;2023-05-21T05:24:15;34.90;;;25.50;;
8435;SDS011;4255;48.730;9.156;2023-05-21T05:26:40;33.57;;;23.83;;
8435;SDS011;4255;48.730;9.156;2023-05-21T05:29:06;32.90;;;25.43;;
8435;SDS011;4255;48.730;9.156;2023-05-21T05:31:31;32.23;;;23.47;;
8435;SDS011;4255;48.730;9.156;2023-05-21T05:33:57;30.53;;;23.03;;
8435;SDS011;4255;48.730;9.156;2023-05-21T05:36:23;30.97;;;21.40;;
8435;SDS011;4255;48.730;9.156;2023-05-21T05:38:48;29.57;;;23.03;;
8435;SDS011;4255;48.730;9.156;2023-05-21T05:41:14;30.00;;;22.63;;
8435;SDS011;4255;48.730;9.156;2023-05-21T05:43:40;32.47;;;22.63;;
8435;SDS011;4255;48.730;9.156;2023-05-21T05:46:05;31.70;;;23.63;;
8435;SDS011;4255;48.730;9.156;2023-05-21T05:48:31;30.40;;;23.20;;
8435;SDS011;4255;48.730;9.156;2023-05-21T05:50:56;28.33;;;22.50;;
8435;SDS011;4255;48.730;9.156;2023-05-21T05:53:22;28.67;;;21.17;;
8435;SDS011;4255;48.730;9.156;2023-05-21T05:55:48;29.20;;;22.77;;
8435;SDS011;4255;48.730;9.156;2023-05-21T05:58:13;28.80;;;21.53;;
8435;SDS011;4255;48.730;9.156;2023-05-21T06:00:39;29.63;;;21.60;;
8435;SDS011;4255;48.730;9.156;2023-05-21T06:03:05;27.60;;;20.50;;
8435;SDS011;4255;48.730;9.156;2023-05-21T06:05:30;27.60;;;21.97;;
8435;SDS011;4255;48.730;9.156;2023-05-21T06:07:56;27.27;;;21.57;;
8435;SDS011;4255;48.730;9.156;2023-05-21T06:10:21;25.33;;;21.13;;
8435;SDS011;4255;48.730;9.156;2023-05-21T06:12:47;26.70;;;21.17;;
8435;SDS011;4255;48.730;9.156;2023-05-21T06:15:13;25.73;;;20.60;;
8435;SDS011;4255;48.730;9.156;2023-05-21T06:17:43;24.03;;;20.37;;
8435;SDS011;4255;48.730;9.156;2023-05-21T06:20:09;28.57;;;22.27;;
8435;SDS011;4255;48.730;9.156;2023-05-21T06:22:35;28.80;;;21.37;;
8435;SDS011;4255;48.730;9.156;2023-05-21T06:25:01;26.43;;;20.70;;
8435;SDS011;4255;48.730;9.156;2023-05-21T06:27:27;25.80;;;20.43;;
8435;SDS011;4255;48.730;9.156;2023-05-21T06:29:53;26.40;;;20.37;;
8435;SDS011;4255;48.730;9.156;2023-05-21T06:32:18;27.23;;;19.97;;
8435;SDS011;4255;48.730;9.156;2023-05-21T06:34:45;25.53;;;19.37;;
8435;SDS011;4255;48.730;9.156;2023-05-21T06:37:11;23.60;;;20.27;;
8435;SDS011;4255;48.730;9.156;2023-05-21T06:39:36;27.03;;;21.60;;
8435;SDS011;4255;48.730;9.156;2023-05-21T06:42:02;31.13;;;20.27;;
8435;SDS011;4255;48.730;9.156;2023-05-21T06:44:27;25.30;;;19.33;;
8435;SDS011;4255;48.730;9.156;2023-05-21T06:46:53;27.40;;;20.63;;
8435;SDS011;4255;48.730;9.156;2023-05-21T06:49:19;23.97;;;18.73;;
8435;SDS011;4255;48.730;9.156;2023-05-21T06:51:45;23.53;;;18.50;;
8435;SDS011;4255;48.730;9.156;2023-05-21T06:54:10;23.47;;;19.00;;
8435;SDS011;4255;48.730;9.156;2023-05-21T06:56:36;23.80;;;19.63;;
8435;SDS011;4255;48.730;9.156;2023-05-21T06:59:01;20.47;;;17.23;;
8435;SDS011;4255;48.730;9.156;2023-05-21T07:01:27;25.73;;;19.80;;
8435;SDS011;4255;48.730;9.156;2023-05-21T07:03:52;25.70;;;18.93;;
8435;SDS011;4255;48.730;9.156;2023-05-21T07:06:18;21.03;;;17.83;;
8435;SDS011;4255;48.730;9.156;2023-05-21T07:08:44;22.60;;;18.00;;
8435;SDS011;4255;48.730;9.156;2023-05-21T07:11:09;21.33;;;16.67;;
8435;SDS011;4255;48.730;9.156;2023-05-21T07:13:35;21.00;;;16.43;;
8435;SDS011;4255;48.730;9.156;2023-05-21T07:16:01;18.57;;;16.10;;
8435;SDS011;4255;48.730;9.156;2023-05-21T07:18:27;16.90;;;14.27;;
8435;SDS011;4255;48.730;9.156;2023-05-21T07:20:52;16.20;;;13.43;;
8435;SDS011;4255;48.730;9.156;2023-05-21T07:23:18;17.60;;;13.23;;
8435;SDS011;4255;48.730;9.156;2023-05-21T07:25:45;16.50;;;14.37;;
8435;SDS011;4255;48.730;9.156;2023-05-21T07:28:11;15.77;;;14.10;;
8435;SDS011;4255;48.730;9.156;2023-05-21T07:30:36;17.50;;;13.77;;
8435;SDS011;4255;48.730;9.156;2023-05-21T07:33:02;16.80;;;13.77;;
8435;SDS011;4255;48.730;9.156;2023-05-21T07:35:28;15.40;;;13.23;;
8435;SDS011;4255;48.730;9.156;2023-05-21T07:37:53;15.20;;;13.60;;
8435;SDS011;4255;48.730;9.156;2023-05-21T07:40:19;14.40;;;12.90;;
8435;SDS011;4255;48.730;9.156;2023-05-21T07:42:45;19.27;;;14.50;;
8435;SDS011;4255;48.730;9.156;2023-05-21T07:45:10;16.57;;;14.30;;
8435;SDS011;4255;48.730;9.156;2023-05-21T07:47:36;17.60;;;14.07;;
8435;SDS011;4255;48.730;9.156;2023-05-21T07:50:02;16.60;;;14.80;;
8435;SDS011;4255;48.730;9.156;2023-05-21T07:52:27;15.10;;;13.50;;
8435;SDS011;4255;48.730;9.156;2023-05-21T07:54:53;16.23;;;13.63;;
8435;SDS011;4255;48.730;9.156;2023-05-21T07:57:19;14.37;;;12.87;;
8435;SDS011;4255;48.730;9.156;2023-05-21T07:59:45;14.90;;;12.90;;
8435;SDS011;4255;48.730;9.156;2023-05-21T08:02:11;15.40;;;12.83;;
8435;SDS011;4255;48.730;9.156;2023-05-21T08:04:36;17.07;;;12.73;;
8435;SDS011;4255;48.730;9.156;2023-05-21T08:07:02;15.90;;;13.50;;
8435;SDS011;4255;48.730;9.156;2023-05-21T08:09:28;14.10;;;11.63;;
8435;SDS011;4255;48.730;9.156;2023-05-21T08:11:53;16.10;;;13.53;;
8435;SDS011;4255;48.730;9.156;2023-05-21T08:14:19;15.73;;;12.70;;
8435;SDS011;4255;48.730;9.156;2023-05-21T08:16:45;14.27;;;12.17;;
8435;SDS011;4255;48.730;9.156;2023-05-21T08:19:10;16.17;;;13.60;;
8435;SDS011;4255;48.730;9.156;2023-05-21T08:21:36;13.33;;;12.03;;
8435;SDS011;4255;48.730;9.156;2023-05-21T08:24:02;13.53;;;12.13;;
8435;SDS011;4255;48.730;9.156;2023-05-21T08:26:27;14.50;;;11.97;;
8435;SDS011;4255;48.730;9.156;2023-05-21T08:28:53;13.33;;;11.53;;
8435;SDS011;4255;48.730;9.156;2023-05-21T08:31:19;14.30;;;11.97;;
8435;SDS011;4255;48.730;9.156;2023-05-21T08:33:52;12.77;;;11.57;;
8435;SDS011;4255;48.730;9.156;2023-05-21T08:36:18;14.63;;;13.20;;
8435;SDS011;4255;48.730;9.156;2023-05-21T08:38:44;14.90;;;13.00;;
8435;SDS011;4255;48.730;9.156;2023-05-21T08:41:10;14.40;;;12.90;;
8435;SDS011;4255;48.730;9.156;2023-05-21T08:43:36;16.00;;;13.33;;
8435;SDS011;4255;48.730;9.156;2023-05-21T08:46:05;13.10;;;11.70;;
8435;SDS011;4255;48.730;9.156;2023-05-21T08:48:33;14.93;;;12.10;;
8435;SDS011;4255;48.730;9.156;2023-05-21T08:51:00;13.30;;;12.00;;
8435;SDS011;4255;48.730;9.156;2023-05-21T08:53:26;13.67;;;12.27;;
8435;SDS011;4255;48.730;9.156;2023-05-21T08:55:52;14.07;;;12.63;;
8435;SDS011;4255;48.730;9.156;2023-05-21T08:58:19;12.57;;;11.37;;
8435;SDS011;4255;48.730;9.156;2023-05-21T09:00:45;13.93;;;12.17;;
8435;SDS011;4255;48.730;9.156;2023-05-21T09:03:11;14.10;;;12.57;;
8435;SDS011;4255;48.730;9.156;2023-05-21T09:05:41;18.20;;;13.87;;
8435;SDS011;4255;48.730;9.156;2023-05-21T09:10:48;16.13;;;14.10;;
8435;SDS011;4255;48.730;9.156;2023-05-21T09:13:15;16.17;;;13.50;;
8435;SDS011;4255;48.730;9.156;2023-05-21T09:15:45;14.83;;;13.10;;
8435;SDS011;4255;48.730;9.156;2023-05-21T09:18:12;13.87;;;12.57;;
8435;SDS011;4255;48.730;9.156;2023-05-21T09:20:38;17.33;;;15.10;;
8435;SDS011;4255;48.730;9.156;2023-05-21T09:23:04;15.87;;;14.00;;
8435;SDS011;4255;48.730;9.156;2023-05-21T09:25:36;16.20;;;14.13;;
8435;SDS011;4255;48.730;9.156;2023-05-21T09:28:02;20.37;;;16.03;;
8435;SDS011;4255;48.730;9.156;2023-05-21T09:30:28;17.07;;;13.87;;
8435;SDS011;4255;48.730;9.156;2023-05-21T09:32:57;17.63;;;14.57;;
8435;SDS011;4255;48.730;9.156;2023-05-21T09:35:23;16.30;;;14.60;;
8435;SDS011;4255;48.730;9.156;2023-05-21T09:37:50;15.40;;;13.90;;
8435;SDS011;4255;48.730;9.156;2023-05-21T09:40:20;16.80;;;15.10;;
8435;SDS011;4255;48.730;9.156;2023-05-21T09:42:50;15.70;;;14.00;;
8435;SDS011;4255;48.730;9.156;2023-05-21T09:45:20;21.20;;;15.17;;
8435;SDS011;4255;48.730;9.156;2023-05-21T09:47:48;15.27;;;13.70;;
8435;SDS011;4255;48.730;9.156;2023-05-21T09:50:24;17.37;;;15.47;;
8435;SDS011;4255;48.730;9.156;2023-05-21T09:52:51;17.80;;;14.97;;
8435;SDS011;4255;48.730;9.156;2023-05-21T09:55:22;17.90;;;14.93;;
8435;SDS011;4255;48.730;9.156;2023-05-21T09:57:52;16.70;;;14.90;;
8435;SDS011;4255;48.730;9.156;2023-05-21T10:00:19;19.67;;;14.70;;
8435;SDS011;4255;48.730;9.156;2023-05-21T10:02:55;15.40;;;13.80;;
8435;SDS011;4255;48.730;9.156;2023-05-21T10:05:25;18.53;;;14.50;;
8435;SDS011;4255;48.730;9.156;2023-05-21T10:07:52;22.23;;;15.57;;
8435;SDS011;4255;48.730;9.156;2023-05-21T10:10:23;15.47;;;13.60;;
8435;SDS011;4255;48.730;9.156;2023-05-21T10:12:56;15.17;;;13.40;;
8435;SDS011;4255;48.730;9.156;2023-05-21T10:15:24;15.20;;;13.50;;
8435;SDS011;4255;48.730;9.156;2023-05-21T10:17:54;14.20;;;12.70;;
8435;SDS011;4255;48.730;9.156;2023-05-21T10:20:21;25.13;;;15.80;;
8435;SDS011;4255;48.730;9.156;2023-05-21T10:22:47;26.30;;;16.17;;
8435;SDS011;4255;48.730;9.156;2023-05-21T10:25:14;14.50;;;13.00;;
8435;SDS011;4255;48.730;9.156;2023-05-21T10:27:41;22.57;;;15.57;;
8435;SDS011;4255;48.730;9.156;2023-05-21T10:30:07;19.67;;;13.27;;
8435;SDS011;4255;48.730;9.156;2023-05-21T10:32:34;13.40;;;11.93;;
8435;SDS011;4255;48.730;9.156;2023-05-21T10:35:00;14.27;;;12.87;;
8435;SDS011;4255;48.730;9.156;2023-05-21T10:37:26;12.60;;;11.50;;
8435;SDS011;4255;48.730;9.156;2023-05-21T10:39:53;15.53;;;12.60;;
8435;SDS011;4255;48.730;9.156;2023-05-21T10:47:57;12.93;;;11.73;;
8435;SDS011;4255;48.730;9.156;2023-05-21T10:50:28;13.30;;;11.93;;
8435;SDS011;4255;48.730;9.156;2023-05-21T10:53:12;14.17;;;11.27;;
8435;SDS011;4255;48.730;9.156;2023-05-21T10:58:34;12.90;;;11.40;;
8435;SDS011;4255;48.730;9.156;2023-05-21T11:01:25;12.77;;;11.57;;
8435;SDS011;4255;48.730;9.156;2023-05-21T11:03:52;11.57;;;10.47;;
8435;SDS011;4255;48.730;9.156;2023-05-21T11:06:23;12.23;;;11.03;;
8435;SDS011;4255;48.730;9.156;2023-05-21T11:08:50;13.43;;;11.47;;
8435;SDS011;4255;48.730;9.156;2023-05-21T11:17:12;14.73;;;12.83;;
8435;SDS011;4255;48.730;9.156;2023-05-21T11:19:41;12.80;;;11.07;;
8435;SDS011;4255;48.730;9.156;2023-05-21T11:22:08;13.40;;;12.10;;
8435;SDS011;4255;48.730;9.156;2023-05-21T11:24:43;13.30;;;12.00;;
8435;SDS011;4255;48.730;9.156;2023-05-21T11:27:09;13.87;;;12.40;;
8435;SDS011;4255;48.730;9.156;2023-05-21T11:29:37;12.97;;;11.77;;
8435;SDS011;4255;48.730;9.156;2023-05-21T11:32:08;13.37;;;11.97;;
8435;SDS011;4255;48.730;9.156;2023-05-21T11:34:42;14.13;;;12.63;;
8435;SDS011;4255;48.730;9.156;2023-05-21T11:40:21;15.20;;;11.20;;
8435;SDS011;4255;48.730;9.156;2023-05-21T11:42:50;12.17;;;11.07;;
8435;SDS011;4255;48.730;9.156;2023-05-21T11:45:20;12.27;;;11.07;;
8435;SDS011;4255;48.730;9.156;2023-05-21T11:47:48;12.93;;;11.63;;
8435;SDS011;4255;48.730;9.156;2023-05-21T11:50:16;14.80;;;11.27;;
8435;SDS011;4255;48.730;9.156;2023-05-21T11:52:42;13.27;;;11.87;;
8435;SDS011;4255;48.730;9.156;2023-05-21T11:55:08;12.93;;;11.53;;
8435;SDS011;4255;48.730;9.156;2023-05-21T11:57:35;13.40;;;11.60;;
8435;SDS011;4255;48.730;9.156;2023-05-21T12:00:01;11.90;;;10.70;;
8435;SDS011;4255;48.730;9.156;2023-05-21T12:02:37;12.63;;;10.87;;
8435;SDS011;4255;48.730;9.156;2023-05-21T12:05:07;12.80;;;11.60;;
8435;SDS011;4255;48.730;9.156;2023-05-21T12:07:33;13.40;;;11.13;;
8435;SDS011;4255;48.730;9.156;2023-05-21T12:09:59;11.70;;;10.60;;
8435;SDS011;4255;48.730;9.156;2023-05-21T12:12:25;13.60;;;11.93;;
8435;SDS011;4255;48.730;9.156;2023-05-21T12:14:52;11.17;;;10.00;;
8435;SDS011;4255;48.730;9.156;2023-05-21T12:17:20;12.50;;;11.20;;
8435;SDS011;4255;48.730;9.156;2023-05-21T12:19:50;12.13;;;10.93;;
8435;SDS011;4255;48.730;9.156;2023-05-21T12:22:16;14.23;;;10.90;;
8435;SDS011;4255;48.730;9.156;2023-05-21T12:24:42;12.20;;;11.10;;
8435;SDS011;4255;48.730;9.156;2023-05-21T12:27:09;11.47;;;10.33;;
8435;SDS011;4255;48.730;9.156;2023-05-21T12:29:41;12.97;;;11.00;;
8435;SDS011;4255;48.730;9.156;2023-05-21T12:32:08;12.63;;;11.43;;
8435;SDS011;4255;48.730;9.156;2023-05-21T12:34:43;15.10;;;10.43;;
8435;SDS011;4255;48.730;9.156;2023-05-21T12:37:18;13.80;;;10.13;;
8435;SDS011;4255;48.730;9.156;2023-05-21T12:39:56;10.27;;;9.30;;
8435;SDS011;4255;48.730;9.156;2023-05-21T12:42:24;11.40;;;10.30;;
8435;SDS011;4255;48.730;9.156;2023-05-21T12:44:51;9.73;;;8.73;;
8435;SDS011;4255;48.730;9.156;2023-05-21T12:47:18;11.73;;;9.40;;
8435;SDS011;4255;48.730;9.156;2023-05-21T12:49:47;10.60;;;8.90;;
8435;SDS011;4255;48.730;9.156;2023-05-21T12:52:13;10.17;;;9.17;;
8435;SDS011;4255;48.730;9.156;2023-05-21T12:54:43;10.70;;;8.80;;
8435;SDS011;4255;48.730;9.156;2023-05-21T12:57:12;10.13;;;9.10;;
8435;SDS011;4255;48.730;9.156;2023-05-21T12:59:46;10.40;;;8.67;;
8435;SDS011;4255;48.730;9.156;2023-05-21T13:02:26;8.87;;;8.07;;
8435;SDS011;4255;48.730;9.156;2023-05-21T13:05:03;8.83;;;8.13;;
8435;SDS011;4255;48.730;9.156;2023-05-21T13:07:31;8.77;;;7.93;;
8435;SDS011;4255;48.730;9.156;2023-05-21T13:09:58;8.90;;;8.10;;
8435;SDS011;4255;48.730;9.156;2023-05-21T13:12:25;10.63;;;9.03;;
8435;SDS011;4255;48.730;9.156;2023-05-21T13:14:53;10.13;;;7.53;;
8435;SDS011;4255;48.730;9.156;2023-05-21T13:17:21;9.30;;;8.40;;
8435;SDS011;4255;48.730;9.156;2023-05-21T13:22:48;9.90;;;7.80;;
8435;SDS011;4255;48.730;9.156;2023-05-21T13:25:16;8.07;;;7.37;;
8435;SDS011;4255;48.730;9.156;2023-05-21T13:27:44;9.00;;;7.50;;
8435;SDS011;4255;48.730;9.156;2023-05-21T13:30:10;8.63;;;7.50;;
8435;SDS011;4255;48.730;9.156;2023-05-21T13:32:36;11.93;;;7.87;;
8435;SDS011;4255;48.730;9.156;2023-05-21T13:35:03;9.10;;;8.10;;
8435;SDS011;4255;48.730;9.156;2023-05-21T13:37:29;8.33;;;7.53;;
8435;SDS011;4255;48.730;9.156;2023-05-21T13:39:55;10.00;;;9.00;;
8435;SDS011;4255;48.730;9.156;2023-05-21T13:42:20;9.47;;;8.50;;
8435;SDS011;4255;48.730;9.156;2023-05-21T13:44:46;18.33;;;10.17;;
8435;SDS011;4255;48.730;9.156;2023-05-21T13:47:12;8.57;;;7.77;;
8435;SDS011;4255;48.730;9.156;2023-05-21T13:49:38;8.67;;;7.77;;
8435;SDS011;4255;48.730;9.156;2023-05-21T13:52:05;8.53;;;7.83;;
8435;SDS011;4255;48.730;9.156;2023-05-21T13:54:32;8.73;;;7.90;;
8435;SDS011;4255;48.730;9.156;2023-05-21T13:56:57;7.70;;;7.00;;
8435;SDS011;4255;48.730;9.156;2023-05-21T13:59:23;10.70;;;8.70;;
8435;SDS011;4255;48.730;9.156;2023-05-21T14:01:49;9.10;;;8.20;;
8435;SDS011;4255;48.730;9.156;2023-05-21T14:04:16;8.30;;;7.60;;
8435;SDS011;4255;48.730;9.156;2023-05-21T14:06:42;10.40;;;8.20;;
8435;SDS011;4255;48.730;9.156;2023-05-21T14:09:08;8.10;;;7.40;;
8435;SDS011;4255;48.730;9.156;2023-05-21T14:11:35;8.67;;;7.87;;
8435;SDS011;4255;48.730;9.156;2023-05-21T14:14:01;8.30;;;7.60;;
8435;SDS011;4255;48.730;9.156;2023-05-21T14:16:26;10.27;;;8.10;;
8435;SDS011;4255;48.730;9.156;2023-05-21T14:18:52;10.67;;;8.30;;
8435;SDS011;4255;48.730;9.156;2023-05-21T14:21:18;9.87;;;8.40;;
8435;SDS011;4255;48.730;9.156;2023-05-21T14:23:45;8.23;;;7.43;;
8435;SDS011;4255;48.730;9.156;2023-05-21T14:26:11;9.13;;;8.23;;
8435;SDS011;4255;48.730;9.156;2023-05-21T14:28:36;8.93;;;7.57;;
8435;SDS011;4255;48.730;9.156;2023-05-21T14:31:02;8.80;;;7.90;;
8435;SDS011;4255;48.730;9.156;2023-05-21T14:33:29;9.50;;;7.93;;
8435;SDS011;4255;48.730;9.156;2023-05-21T14:35:55;9.87;;;7.50;;
8435;SDS011;4255;48.730;9.156;2023-05-21T14:38:21;7.93;;;7.23;;
8435;SDS011;4255;48.730;9.156;2023-05-21T14:40:46;6.97;;;6.30;;
8435;SDS011;4255;48.730;9.156;2023-05-21T14:43:12;7.60;;;6.93;;
8435;SDS011;4255;48.730;9.156;2023-05-21T14:45:37;9.03;;;6.73;;
8435;SDS011;4255;48.730;9.156;2023-05-21T14:48:03;6.57;;;5.97;;
8435;SDS011;4255;48.730;9.156;2023-05-21T14:50:36;8.27;;;7.47;;
8435;SDS011;4255;48.730;9.156;2023-05-21T14:53:05;7.13;;;6.53;;
8435;SDS011;4255;48.730;9.156;2023-05-21T14:55:32;8.40;;;7.50;;
8435;SDS011;4255;48.730;9.156;2023-05-21T14:57:59;8.10;;;7.33;;
8435;SDS011;4255;48.730;9.156;2023-05-21T15:00:25;8.97;;;7.50;;
8435;SDS011;4255;48.730;9.156;2023-05-21T15:02:51;7.80;;;6.67;;
8435;SDS011;4255;48.730;9.156;2023-05-21T15:05:17;7.93;;;7.13;;
8435;SDS011;4255;48.730;9.156;2023-05-21T15:07:43;7.60;;;6.73;;
8435;SDS011;4255;48.730;9.156;2023-05-21T15:10:09;7.60;;;6.90;;
8435;SDS011;4255;48.730;9.156;2023-05-21T15:12:35;7.57;;;6.80;;
8435;SDS011;4255;48.730;9.156;2023-05-21T15:15:01;7.17;;;6.47;;
8435;SDS011;4255;48.730;9.156;2023-05-21T15:17:27;8.90;;;7.47;;